sensor_id;sensor_type;location;lat;lon;timestamp;pressure;altitude;pressure_sealevel;temperature
24740;BMP280;45234;48.148;17.128;2023-05-19T00:01:27;100649.75;;;13.12
24740;BMP280;45234;48.148;17.128;2023-05-19T00:03:57;100642.72;;;13.06
24740;BMP280;45234;48.148;17.128;2023-05-19T00:06:26;100646.72;;;13.01
24740;BMP280;45234;48.148;17.128;2023-05-19T00:08:58;100646.13;;;12.99
24740;BMP280;45234;48.148;17.128;2023-05-19T00:11:26;100634.09;;;12.98
24740;BMP280;45234;48.148;17.128;2023-05-19T00:13:57;100636.09;;;12.96
24740;BMP280;45234;48.148;17.128;2023-05-19T00:16:25;100636.09;;;12.96
24740;BMP280;45234;48.148;17.128;2023-05-19T00:18:53;100637.91;;;12.96
24740;BMP280;45234;48.148;17.128;2023-05-19T00:21:20;100640.06;;;12.92
24740;BMP280;45234;48.148;17.128;2023-05-19T00:23:47;100626.44;;;12.90
24740;BMP280;45234;48.148;17.128;2023-05-19T00:26:14;100635.47;;;12.94
24740;BMP280;45234;48.148;17.128;2023-05-19T00:28:51;100632.25;;;12.92
24740;BMP280;45234;48.148;17.128;2023-05-19T00:31:18;100627.84;;;12.93
24740;BMP280;45234;48.148;17.128;2023-05-19T00:33:44;100631.25;;;12.93
24740;BMP280;45234;48.148;17.128;2023-05-19T00:36:12;100629.47;;;12.94
24740;BMP280;45234;48.148;17.128;2023-05-19T00:38:39;100625.44;;;12.91
24740;BMP280;45234;48.148;17.128;2023-05-19T00:41:06;100627.47;;;12.89
24740;BMP280;45234;48.148;17.128;2023-05-19T00:43:34;100621.22;;;12.90
24740;BMP280;45234;48.148;17.128;2023-05-19T00:46:01;100617.25;;;12.88
24740;BMP280;45234;48.148;17.128;2023-05-19T00:48:28;100624.25;;;12.87
24740;BMP280;45234;48.148;17.128;2023-05-19T00:50:57;100629.22;;;12.82
24740;BMP280;45234;48.148;17.128;2023-05-19T00:53:33;100616.59;;;12.79
24740;BMP280;45234;48.148;17.128;2023-05-19T00:56:00;100608.78;;;12.79
24740;BMP280;45234;48.148;17.128;2023-05-19T00:58:29;100613.38;;;12.77
24740;BMP280;45234;48.148;17.128;2023-05-19T01:00:58;100611.00;;;12.76
24740;BMP280;45234;48.148;17.128;2023-05-19T01:03:31;100609.13;;;12.70
24740;BMP280;45234;48.148;17.128;2023-05-19T01:06:03;100608.72;;;12.66
24740;BMP280;45234;48.148;17.128;2023-05-19T01:08:34;100603.88;;;12.63
24740;BMP280;45234;48.148;17.128;2023-05-19T01:11:06;100606.88;;;12.60
24740;BMP280;45234;48.148;17.128;2023-05-19T01:13:34;100606.03;;;12.53
24740;BMP280;45234;48.148;17.128;2023-05-19T01:24:28;100604.00;;;12.20
24740;BMP280;45234;48.148;17.128;2023-05-19T01:32:18;100601.06;;;12.02
24740;BMP280;45234;48.148;17.128;2023-05-19T01:34:48;100602.59;;;11.96
24740;BMP280;45234;48.148;17.128;2023-05-19T01:37:17;100607.59;;;11.91
24740;BMP280;45234;48.148;17.128;2023-05-19T01:39:45;100605.91;;;11.84
24740;BMP280;45234;48.148;17.128;2023-05-19T01:42:14;100601.25;;;11.79
24740;BMP280;45234;48.148;17.128;2023-05-19T01:44:42;100605.00;;;11.70
24740;BMP280;45234;48.148;17.128;2023-05-19T01:47:09;100599.97;;;11.69
24740;BMP280;45234;48.148;17.128;2023-05-19T01:49:37;100603.09;;;11.64
24740;BMP280;45234;48.148;17.128;2023-05-19T01:52:04;100600.09;;;11.60
24740;BMP280;45234;48.148;17.128;2023-05-19T01:54:31;100606.59;;;11.56
24740;BMP280;45234;48.148;17.128;2023-05-19T02:02:50;100597.97;;;11.49
24740;BMP280;45234;48.148;17.128;2023-05-19T02:05:15;100603.41;;;11.54
24740;BMP280;45234;48.148;17.128;2023-05-19T02:07:49;100592.66;;;11.57
24740;BMP280;45234;48.148;17.128;2023-05-19T02:10:27;100598.47;;;11.59
24740;BMP280;45234;48.148;17.128;2023-05-19T02:12:59;100592.19;;;11.69
24740;BMP280;45234;48.148;17.128;2023-05-19T02:15:32;100595.19;;;11.72
24740;BMP280;45234;48.148;17.128;2023-05-19T02:18:02;100584.88;;;11.79
24740;BMP280;45234;48.148;17.128;2023-05-19T02:20:30;100589.50;;;11.83
24740;BMP280;45234;48.148;17.128;2023-05-19T02:22:58;100589.41;;;11.91
24740;BMP280;45234;48.148;17.128;2023-05-19T02:25:24;100602.44;;;11.98
24740;BMP280;45234;48.148;17.128;2023-05-19T02:27:53;100601.69;;;12.04
24740;BMP280;45234;48.148;17.128;2023-05-19T02:30:20;100599.16;;;12.11
24740;BMP280;45234;48.148;17.128;2023-05-19T02:32:47;100594.97;;;12.16
24740;BMP280;45234;48.148;17.128;2023-05-19T02:35:14;100603.63;;;12.23
24740;BMP280;45234;48.148;17.128;2023-05-19T02:37:41;100604.88;;;12.27
24740;BMP280;45234;48.148;17.128;2023-05-19T02:40:09;100603.66;;;12.30
24740;BMP280;45234;48.148;17.128;2023-05-19T02:42:36;100594.72;;;12.32
24740;BMP280;45234;48.148;17.128;2023-05-19T02:45:04;100604.91;;;12.34
24740;BMP280;45234;48.148;17.128;2023-05-19T02:47:31;100598.91;;;12.34
24740;BMP280;45234;48.148;17.128;2023-05-19T02:50:02;100598.53;;;12.37
24740;BMP280;45234;48.148;17.128;2023-05-19T02:52:30;100603.34;;;12.40
24740;BMP280;45234;48.148;17.128;2023-05-19T02:54:57;100603.97;;;12.42
24740;BMP280;45234;48.148;17.128;2023-05-19T02:57:24;100612.00;;;12.47
24740;BMP280;45234;48.148;17.128;2023-05-19T02:59:52;100604.38;;;12.45
24740;BMP280;45234;48.148;17.128;2023-05-19T03:02:19;100604.78;;;12.49
24740;BMP280;45234;48.148;17.128;2023-05-19T03:04:46;100598.59;;;12.50
24740;BMP280;45234;48.148;17.128;2023-05-19T03:07:13;100607.00;;;12.52
24740;BMP280;45234;48.148;17.128;2023-05-19T03:09:41;100605.06;;;12.54
24740;BMP280;45234;48.148;17.128;2023-05-19T03:12:08;100602.06;;;12.57
24740;BMP280;45234;48.148;17.128;2023-05-19T03:14:35;100604.66;;;12.57
24740;BMP280;45234;48.148;17.128;2023-05-19T03:17:05;100601.47;;;12.55
24740;BMP280;45234;48.148;17.128;2023-05-19T03:19:36;100603.22;;;12.48
24740;BMP280;45234;48.148;17.128;2023-05-19T03:22:03;100600.13;;;12.38
24740;BMP280;45234;48.148;17.128;2023-05-19T03:24:32;100609.31;;;12.34
24740;BMP280;45234;48.148;17.128;2023-05-19T03:26:58;100608.34;;;12.35
24740;BMP280;45234;48.148;17.128;2023-05-19T03:29:26;100616.53;;;12.38
24740;BMP280;45234;48.148;17.128;2023-05-19T03:31:53;100610.16;;;12.41
24740;BMP280;45234;48.148;17.128;2023-05-19T03:34:20;100618.56;;;12.43
24740;BMP280;45234;48.148;17.128;2023-05-19T03:36:48;100617.00;;;12.48
24740;BMP280;45234;48.148;17.128;2023-05-19T03:39:16;100622.47;;;12.53
24740;BMP280;45234;48.148;17.128;2023-05-19T03:41:45;100620.25;;;12.57
24740;BMP280;45234;48.148;17.128;2023-05-19T03:44:12;100616.28;;;12.61
24740;BMP280;45234;48.148;17.128;2023-05-19T03:46:39;100624.94;;;12.68
24740;BMP280;45234;48.148;17.128;2023-05-19T03:49:06;100625.94;;;12.74
24740;BMP280;45234;48.148;17.128;2023-05-19T03:51:53;100620.38;;;12.77
24740;BMP280;45234;48.148;17.128;2023-05-19T03:54:40;100624.38;;;12.79
24740;BMP280;45234;48.148;17.128;2023-05-19T03:57:09;100621.03;;;12.85
24740;BMP280;45234;48.148;17.128;2023-05-19T03:59:36;100618.84;;;12.89
24740;BMP280;45234;48.148;17.128;2023-05-19T04:02:04;100622.84;;;12.91
24740;BMP280;45234;48.148;17.128;2023-05-19T04:04:31;100617.25;;;12.94
24740;BMP280;45234;48.148;17.128;2023-05-19T04:06:58;100624.69;;;12.97
24740;BMP280;45234;48.148;17.128;2023-05-19T04:09:25;100622.69;;;12.99
24740;BMP280;45234;48.148;17.128;2023-05-19T04:11:53;100627.50;;;13.02
24740;BMP280;45234;48.148;17.128;2023-05-19T04:14:20;100634.91;;;13.06
24740;BMP280;45234;48.148;17.128;2023-05-19T04:16:47;100629.94;;;13.11
24740;BMP280;45234;48.148;17.128;2023-05-19T04:19:14;100632.78;;;13.16
24740;BMP280;45234;48.148;17.128;2023-05-19T04:21:41;100630.97;;;13.16
24740;BMP280;45234;48.148;17.128;2023-05-19T04:24:08;100627.19;;;13.19
24740;BMP280;45234;48.148;17.128;2023-05-19T04:26:35;100628.56;;;13.15
24740;BMP280;45234;48.148;17.128;2023-05-19T04:29:04;100639.59;;;13.17
24740;BMP280;45234;48.148;17.128;2023-05-19T04:31:31;100629.41;;;13.22
24740;BMP280;45234;48.148;17.128;2023-05-19T04:34:01;100626.22;;;13.33
24740;BMP280;45234;48.148;17.128;2023-05-19T04:36:28;100633.06;;;13.41
24740;BMP280;45234;48.148;17.128;2023-05-19T04:38:55;100634.66;;;13.48
24740;BMP280;45234;48.148;17.128;2023-05-19T04:41:28;100629.06;;;13.51
24740;BMP280;45234;48.148;17.128;2023-05-19T04:43:55;100638.69;;;13.57
24740;BMP280;45234;48.148;17.128;2023-05-19T04:46:23;100638.91;;;13.62
24740;BMP280;45234;48.148;17.128;2023-05-19T04:48:53;100635.91;;;13.65
24740;BMP280;45234;48.148;17.128;2023-05-19T04:51:23;100632.53;;;13.71
24740;BMP280;45234;48.148;17.128;2023-05-19T04:53:58;100629.09;;;13.78
24740;BMP280;45234;48.148;17.128;2023-05-19T04:56:25;100626.53;;;13.84
24740;BMP280;45234;48.148;17.128;2023-05-19T04:58:53;100625.53;;;13.92
24740;BMP280;45234;48.148;17.128;2023-05-19T05:01:21;100622.94;;;13.92
24740;BMP280;45234;48.148;17.128;2023-05-19T05:03:54;100618.28;;;13.94
24740;BMP280;45234;48.148;17.128;2023-05-19T05:06:21;100631.53;;;13.99
24740;BMP280;45234;48.148;17.128;2023-05-19T05:08:49;100634.13;;;14.05
24740;BMP280;45234;48.148;17.128;2023-05-19T05:11:17;100637.16;;;14.09
24740;BMP280;45234;48.148;17.128;2023-05-19T05:13:45;100639.13;;;14.20
24740;BMP280;45234;48.148;17.128;2023-05-19T05:16:13;100641.16;;;14.25
24740;BMP280;45234;48.148;17.128;2023-05-19T05:18:41;100648.16;;;14.37
24740;BMP280;45234;48.148;17.128;2023-05-19T05:21:11;100650.31;;;14.54
24740;BMP280;45234;48.148;17.128;2023-05-19T05:23:39;100644.28;;;14.66
24740;BMP280;45234;48.148;17.128;2023-05-19T05:26:12;100646.06;;;14.79
24740;BMP280;45234;48.148;17.128;2023-05-19T05:28:41;100644.19;;;14.99
24740;BMP280;45234;48.148;17.128;2023-05-19T05:31:08;100646.09;;;15.17
24740;BMP280;45234;48.148;17.128;2023-05-19T05:33:35;100642.09;;;15.14
24740;BMP280;45234;48.148;17.128;2023-05-19T05:36:03;100658.78;;;15.13
24740;BMP280;45234;48.148;17.128;2023-05-19T05:38:30;100663.81;;;15.08
24740;BMP280;45234;48.148;17.128;2023-05-19T05:40:58;100661.44;;;15.00
24740;BMP280;45234;48.148;17.128;2023-05-19T05:43:25;100668.69;;;14.98
24740;BMP280;45234;48.148;17.128;2023-05-19T05:45:57;100667.09;;;14.97
24740;BMP280;45234;48.148;17.128;2023-05-19T05:48:24;100676.34;;;14.93
24740;BMP280;45234;48.148;17.128;2023-05-19T05:50:52;100663.84;;;14.95
24740;BMP280;45234;48.148;17.128;2023-05-19T05:53:25;100678.69;;;15.01
24740;BMP280;45234;48.148;17.128;2023-05-19T05:55:54;100684.31;;;15.11
24740;BMP280;45234;48.148;17.128;2023-05-19T05:58:26;100685.69;;;15.14
24740;BMP280;45234;48.148;17.128;2023-05-19T06:00:56;100683.88;;;15.14
24740;BMP280;45234;48.148;17.128;2023-05-19T06:03:24;100687.72;;;15.05
24740;BMP280;45234;48.148;17.128;2023-05-19T06:05:52;100686.34;;;15.03
24740;BMP280;45234;48.148;17.128;2023-05-19T06:08:19;100691.56;;;14.96
24740;BMP280;45234;48.148;17.128;2023-05-19T06:10:46;100695.66;;;14.79
24740;BMP280;45234;48.148;17.128;2023-05-19T06:13:14;100701.50;;;14.61
24740;BMP280;45234;48.148;17.128;2023-05-19T06:15:44;100695.69;;;14.53
24740;BMP280;45234;48.148;17.128;2023-05-19T06:18:19;100702.91;;;14.51
24740;BMP280;45234;48.148;17.128;2023-05-19T06:20:47;100697.09;;;14.42
24740;BMP280;45234;48.148;17.128;2023-05-19T06:23:14;100706.16;;;14.46
24740;BMP280;45234;48.148;17.128;2023-05-19T06:25:42;100704.94;;;14.55
24740;BMP280;45234;48.148;17.128;2023-05-19T06:28:09;100710.31;;;14.60
24740;BMP280;45234;48.148;17.128;2023-05-19T06:30:36;100714.75;;;14.60
24740;BMP280;45234;48.148;17.128;2023-05-19T06:33:19;100702.72;;;14.59
24740;BMP280;45234;48.148;17.128;2023-05-19T06:35:46;100702.09;;;14.70
24740;BMP280;45234;48.148;17.128;2023-05-19T06:38:14;100704.44;;;14.91
24740;BMP280;45234;48.148;17.128;2023-05-19T06:40:41;100708.38;;;15.13
24740;BMP280;45234;48.148;17.128;2023-05-19T06:43:08;100712.75;;;15.33
24740;BMP280;45234;48.148;17.128;2023-05-19T06:46:04;100715.03;;;15.54
24740;BMP280;45234;48.148;17.128;2023-05-19T06:48:32;100714.16;;;15.67
24740;BMP280;45234;48.148;17.128;2023-05-19T06:51:01;100714.81;;;15.94
24740;BMP280;45234;48.148;17.128;2023-05-19T06:53:29;100704.06;;;16.27
24740;BMP280;45234;48.148;17.128;2023-05-19T06:55:56;100709.03;;;16.53
24740;BMP280;45234;48.148;17.128;2023-05-19T06:58:32;100696.94;;;16.77
24740;BMP280;45234;48.148;17.128;2023-05-19T07:01:02;100704.41;;;17.10
24740;BMP280;45234;48.148;17.128;2023-05-19T07:03:34;100705.81;;;17.54
24740;BMP280;45234;48.148;17.128;2023-05-19T07:06:02;100707.00;;;18.28
24740;BMP280;45234;48.148;17.128;2023-05-19T07:08:31;100708.09;;;18.78
24740;BMP280;45234;48.148;17.128;2023-05-19T07:11:02;100702.31;;;19.21
24740;BMP280;45234;48.148;17.128;2023-05-19T07:13:29;100705.97;;;20.04
24740;BMP280;45234;48.148;17.128;2023-05-19T07:15:58;100700.00;;;21.28
24740;BMP280;45234;48.148;17.128;2023-05-19T07:18:27;100700.06;;;22.27
24740;BMP280;45234;48.148;17.128;2023-05-19T07:20:58;100709.25;;;23.02
24740;BMP280;45234;48.148;17.128;2023-05-19T07:23:25;100706.78;;;22.60
24740;BMP280;45234;48.148;17.128;2023-05-19T07:25:54;100704.38;;;21.91
24740;BMP280;45234;48.148;17.128;2023-05-19T07:28:22;100712.16;;;22.13
24740;BMP280;45234;48.148;17.128;2023-05-19T07:30:49;100707.91;;;22.07
24740;BMP280;45234;48.148;17.128;2023-05-19T07:33:16;100711.72;;;20.88
24740;BMP280;45234;48.148;17.128;2023-05-19T07:35:43;100713.50;;;19.79
24740;BMP280;45234;48.148;17.128;2023-05-19T07:38:12;100715.53;;;18.98
24740;BMP280;45234;48.148;17.128;2023-05-19T07:40:39;100717.72;;;18.38
24740;BMP280;45234;48.148;17.128;2023-05-19T07:43:06;100715.81;;;17.98
24740;BMP280;45234;48.148;17.128;2023-05-19T07:45:33;100711.97;;;17.71
24740;BMP280;45234;48.148;17.128;2023-05-19T07:48:00;100717.81;;;17.31
24740;BMP280;45234;48.148;17.128;2023-05-19T07:50:27;100722.13;;;17.08
24740;BMP280;45234;48.148;17.128;2023-05-19T07:52:54;100720.84;;;16.98
24740;BMP280;45234;48.148;17.128;2023-05-19T07:55:24;100713.19;;;17.15
24740;BMP280;45234;48.148;17.128;2023-05-19T07:57:51;100720.28;;;17.26
24740;BMP280;45234;48.148;17.128;2023-05-19T08:00:19;100724.56;;;17.09
24740;BMP280;45234;48.148;17.128;2023-05-19T08:02:45;100731.06;;;17.18
24740;BMP280;45234;48.148;17.128;2023-05-19T08:05:13;100730.75;;;17.26
24740;BMP280;45234;48.148;17.128;2023-05-19T08:07:40;100734.25;;;17.20
24740;BMP280;45234;48.148;17.128;2023-05-19T08:10:08;100729.50;;;16.99
24740;BMP280;45234;48.148;17.128;2023-05-19T08:12:35;100736.03;;;16.90
24740;BMP280;45234;48.148;17.128;2023-05-19T08:15:04;100733.13;;;16.80
24740;BMP280;45234;48.148;17.128;2023-05-19T08:17:32;100737.63;;;16.73
24740;BMP280;45234;48.148;17.128;2023-05-19T08:19:59;100739.81;;;16.76
24740;BMP280;45234;48.148;17.128;2023-05-19T08:22:26;100739.53;;;16.84
24740;BMP280;45234;48.148;17.128;2023-05-19T08:24:52;100729.94;;;16.78
24740;BMP280;45234;48.148;17.128;2023-05-19T08:27:19;100736.19;;;16.77
24740;BMP280;45234;48.148;17.128;2023-05-19T08:29:46;100734.56;;;16.76
24740;BMP280;45234;48.148;17.128;2023-05-19T08:32:16;100728.34;;;16.58
24740;BMP280;45234;48.148;17.128;2023-05-19T08:34:44;100727.06;;;16.43
24740;BMP280;45234;48.148;17.128;2023-05-19T08:37:11;100733.06;;;16.25
24740;BMP280;45234;48.148;17.128;2023-05-19T08:39:38;100722.53;;;16.32
24740;BMP280;45234;48.148;17.128;2023-05-19T08:42:06;100732.81;;;16.51
24740;BMP280;45234;48.148;17.128;2023-05-19T08:44:36;100723.94;;;16.52
24740;BMP280;45234;48.148;17.128;2023-05-19T08:47:03;100718.56;;;16.47
24740;BMP280;45234;48.148;17.128;2023-05-19T08:49:34;100706.66;;;16.51
24740;BMP280;45234;48.148;17.128;2023-05-19T08:52:54;100710.66;;;16.72
24740;BMP280;45234;48.148;17.128;2023-05-19T08:55:14;100715.22;;;16.95
24740;BMP280;45234;48.148;17.128;2023-05-19T08:57:48;100715.41;;;17.00
24740;BMP280;45234;48.148;17.128;2023-05-19T09:00:18;100699.69;;;16.64
24740;BMP280;45234;48.148;17.128;2023-05-19T09:02:48;100713.44;;;16.59
24740;BMP280;45234;48.148;17.128;2023-05-19T09:05:37;100719.31;;;16.73
24740;BMP280;45234;48.148;17.128;2023-05-19T09:08:05;100714.75;;;17.16
24740;BMP280;45234;48.148;17.128;2023-05-19T09:10:32;100710.72;;;17.62
24740;BMP280;45234;48.148;17.128;2023-05-19T09:12:59;100713.25;;;17.80
24740;BMP280;45234;48.148;17.128;2023-05-19T09:15:26;100719.13;;;17.52
24740;BMP280;45234;48.148;17.128;2023-05-19T09:18:08;100719.44;;;17.14
24740;BMP280;45234;48.148;17.128;2023-05-19T09:20:40;100721.94;;;17.09
24740;BMP280;45234;48.148;17.128;2023-05-19T09:23:12;100712.34;;;17.33
24740;BMP280;45234;48.148;17.128;2023-05-19T09:25:51;100721.81;;;17.34
24740;BMP280;45234;48.148;17.128;2023-05-19T09:28:29;100711.75;;;17.31
24740;BMP280;45234;48.148;17.128;2023-05-19T09:31:06;100714.25;;;17.08
24740;BMP280;45234;48.148;17.128;2023-05-19T09:33:41;100708.38;;;17.12
24740;BMP280;45234;48.148;17.128;2023-05-19T09:36:13;100714.06;;;17.09
24740;BMP280;45234;48.148;17.128;2023-05-19T09:38:41;100706.63;;;17.06
24740;BMP280;45234;48.148;17.128;2023-05-19T09:41:08;100701.97;;;17.38
24740;BMP280;45234;48.148;17.128;2023-05-19T09:43:36;100705.06;;;17.47
24740;BMP280;45234;48.148;17.128;2023-05-19T09:46:07;100704.91;;;17.60
24740;BMP280;45234;48.148;17.128;2023-05-19T09:48:38;100707.34;;;18.20
24740;BMP280;45234;48.148;17.128;2023-05-19T09:51:07;100701.59;;;18.69
24740;BMP280;45234;48.148;17.128;2023-05-19T09:53:36;100698.56;;;18.89
24740;BMP280;45234;48.148;17.128;2023-05-19T09:56:05;100703.22;;;19.15
24740;BMP280;45234;48.148;17.128;2023-05-19T09:58:34;100700.97;;;19.07
24740;BMP280;45234;48.148;17.128;2023-05-19T10:01:05;100700.56;;;18.70
24740;BMP280;45234;48.148;17.128;2023-05-19T10:03:34;100702.91;;;18.83
24740;BMP280;45234;48.148;17.128;2023-05-19T10:06:04;100706.91;;;18.74
24740;BMP280;45234;48.148;17.128;2023-05-19T10:08:33;100695.50;;;18.80
24740;BMP280;45234;48.148;17.128;2023-05-19T10:11:01;100697.94;;;18.99
24740;BMP280;45234;48.148;17.128;2023-05-19T10:13:29;100691.19;;;19.31
24740;BMP280;45234;48.148;17.128;2023-05-19T10:15:57;100697.50;;;19.63
24740;BMP280;45234;48.148;17.128;2023-05-19T10:18:26;100695.47;;;19.71
24740;BMP280;45234;48.148;17.128;2023-05-19T10:20:56;100693.88;;;19.36
24740;BMP280;45234;48.148;17.128;2023-05-19T10:23:25;100689.63;;;19.63
24740;BMP280;45234;48.148;17.128;2023-05-19T10:25:55;100691.03;;;19.71
24740;BMP280;45234;48.148;17.128;2023-05-19T10:28:25;100688.22;;;19.78
24740;BMP280;45234;48.148;17.128;2023-05-19T10:30:57;100685.06;;;20.14
24740;BMP280;45234;48.148;17.128;2023-05-19T10:33:55;100680.69;;;20.47
24740;BMP280;45234;48.148;17.128;2023-05-19T10:39:26;100678.75;;;20.59
24740;BMP280;45234;48.148;17.128;2023-05-19T10:42:18;100680.25;;;20.76
24740;BMP280;45234;48.148;17.128;2023-05-19T10:45:12;100685.38;;;20.88
24740;BMP280;45234;48.148;17.128;2023-05-19T10:47:43;100674.81;;;20.83
24740;BMP280;45234;48.148;17.128;2023-05-19T10:50:10;100681.81;;;20.72
24740;BMP280;45234;48.148;17.128;2023-05-19T10:52:38;100675.00;;;20.55
24740;BMP280;45234;48.148;17.128;2023-05-19T10:55:12;100675.50;;;20.52
24740;BMP280;45234;48.148;17.128;2023-05-19T10:57:55;100666.94;;;20.61
24740;BMP280;45234;48.148;17.128;2023-05-19T11:00:30;100669.72;;;20.76
24740;BMP280;45234;48.148;17.128;2023-05-19T11:03:17;100672.56;;;20.70
24740;BMP280;45234;48.148;17.128;2023-05-19T11:05:50;100676.41;;;20.89
24740;BMP280;45234;48.148;17.128;2023-05-19T11:08:31;100670.38;;;20.67
24740;BMP280;45234;48.148;17.128;2023-05-19T11:11:15;100676.81;;;20.49
24740;BMP280;45234;48.148;17.128;2023-05-19T11:13:47;100672.34;;;20.28
24740;BMP280;45234;48.148;17.128;2023-05-19T11:16:18;100675.50;;;20.08
24740;BMP280;45234;48.148;17.128;2023-05-19T11:19:02;100670.19;;;20.03
24740;BMP280;45234;48.148;17.128;2023-05-19T11:21:48;100668.44;;;19.92
24740;BMP280;45234;48.148;17.128;2023-05-19T11:27:27;100658.66;;;19.71
24740;BMP280;45234;48.148;17.128;2023-05-19T11:30:00;100652.41;;;19.55
24740;BMP280;45234;48.148;17.128;2023-05-19T11:32:34;100656.13;;;19.59
24740;BMP280;45234;48.148;17.128;2023-05-19T11:35:05;100658.81;;;19.47
24740;BMP280;45234;48.148;17.128;2023-05-19T11:37:32;100660.09;;;19.78
24740;BMP280;45234;48.148;17.128;2023-05-19T11:40:03;100660.88;;;19.95
24740;BMP280;45234;48.148;17.128;2023-05-19T11:42:35;100655.53;;;20.12
24740;BMP280;45234;48.148;17.128;2023-05-19T11:45:03;100656.78;;;20.26
24740;BMP280;45234;48.148;17.128;2023-05-19T11:47:34;100656.00;;;20.48
24740;BMP280;45234;48.148;17.128;2023-05-19T11:50:21;100648.50;;;20.61
24740;BMP280;45234;48.148;17.128;2023-05-19T11:52:49;100646.69;;;20.67
24740;BMP280;45234;48.148;17.128;2023-05-19T11:55:18;100652.88;;;20.77
24740;BMP280;45234;48.148;17.128;2023-05-19T11:57:56;100651.13;;;20.61
24740;BMP280;45234;48.148;17.128;2023-05-19T12:00:39;100651.09;;;20.88
24740;BMP280;45234;48.148;17.128;2023-05-19T12:03:06;100638.16;;;20.81
24740;BMP280;45234;48.148;17.128;2023-05-19T12:05:37;100641.50;;;21.41
24740;BMP280;45234;48.148;17.128;2023-05-19T12:08:10;100646.44;;;21.27
24740;BMP280;45234;48.148;17.128;2023-05-19T12:10:38;100642.03;;;21.01
24740;BMP280;45234;48.148;17.128;2023-05-19T12:13:06;100633.28;;;20.95
24740;BMP280;45234;48.148;17.128;2023-05-19T12:15:36;100638.66;;;21.10
24740;BMP280;45234;48.148;17.128;2023-05-19T12:18:04;100632.38;;;21.11
24740;BMP280;45234;48.148;17.128;2023-05-19T12:20:33;100630.53;;;20.85
24740;BMP280;45234;48.148;17.128;2023-05-19T12:23:02;100627.47;;;20.66
24740;BMP280;45234;48.148;17.128;2023-05-19T12:25:30;100628.41;;;20.82
24740;BMP280;45234;48.148;17.128;2023-05-19T12:27:59;100633.19;;;20.85
24740;BMP280;45234;48.148;17.128;2023-05-19T12:30:30;100628.50;;;20.92
24740;BMP280;45234;48.148;17.128;2023-05-19T12:33:00;100622.84;;;21.10
24740;BMP280;45234;48.148;17.128;2023-05-19T12:35:28;100626.53;;;21.09
24740;BMP280;45234;48.148;17.128;2023-05-19T12:37:56;100626.88;;;20.86
24740;BMP280;45234;48.148;17.128;2023-05-19T12:40:29;100623.75;;;20.62
24740;BMP280;45234;48.148;17.128;2023-05-19T12:42:56;100626.78;;;20.54
24740;BMP280;45234;48.148;17.128;2023-05-19T12:45:27;100616.56;;;20.58
24740;BMP280;45234;48.148;17.128;2023-05-19T12:47:54;100619.97;;;20.53
24740;BMP280;45234;48.148;17.128;2023-05-19T12:50:29;100625.41;;;20.25
24740;BMP280;45234;48.148;17.128;2023-05-19T12:52:57;100619.31;;;20.19
24740;BMP280;45234;48.148;17.128;2023-05-19T12:55:25;100608.66;;;20.09
24740;BMP280;45234;48.148;17.128;2023-05-19T12:57:52;100605.50;;;20.07
24740;BMP280;45234;48.148;17.128;2023-05-19T13:00:23;100612.50;;;20.23
24740;BMP280;45234;48.148;17.128;2023-05-19T13:03:02;100607.63;;;20.32
24740;BMP280;45234;48.148;17.128;2023-05-19T13:05:39;100601.84;;;20.35
24740;BMP280;45234;48.148;17.128;2023-05-19T13:08:10;100605.34;;;20.40
24740;BMP280;45234;48.148;17.128;2023-05-19T13:10:40;100602.16;;;20.38
24740;BMP280;45234;48.148;17.128;2023-05-19T13:13:08;100590.44;;;20.51
24740;BMP280;45234;48.148;17.128;2023-05-19T13:15:41;100595.97;;;20.55
24740;BMP280;45234;48.148;17.128;2023-05-19T13:18:10;100594.69;;;20.79
24740;BMP280;45234;48.148;17.128;2023-05-19T13:20:38;100596.56;;;20.89
24740;BMP280;45234;48.148;17.128;2023-05-19T13:23:06;100601.56;;;20.85
24740;BMP280;45234;48.148;17.128;2023-05-19T13:25:33;100591.63;;;20.65
24740;BMP280;45234;48.148;17.128;2023-05-19T13:28:01;100589.63;;;20.51
24740;BMP280;45234;48.148;17.128;2023-05-19T13:30:32;100584.28;;;20.45
24740;BMP280;45234;48.148;17.128;2023-05-19T13:33:01;100584.06;;;20.47
24740;BMP280;45234;48.148;17.128;2023-05-19T13:35:29;100575.31;;;20.41
24740;BMP280;45234;48.148;17.128;2023-05-19T13:38:06;100586.34;;;20.38
24740;BMP280;45234;48.148;17.128;2023-05-19T13:40:37;100575.63;;;20.45
24740;BMP280;45234;48.148;17.128;2023-05-19T13:43:04;100572.56;;;20.53
24740;BMP280;45234;48.148;17.128;2023-05-19T13:45:31;100570.28;;;20.62
24740;BMP280;45234;48.148;17.128;2023-05-19T13:47:58;100577.75;;;20.75
24740;BMP280;45234;48.148;17.128;2023-05-19T13:50:25;100570.72;;;20.86
24740;BMP280;45234;48.148;17.128;2023-05-19T13:52:52;100568.97;;;20.91
24740;BMP280;45234;48.148;17.128;2023-05-19T13:55:20;100569.22;;;20.95
24740;BMP280;45234;48.148;17.128;2023-05-19T13:57:47;100574.22;;;20.96
24740;BMP280;45234;48.148;17.128;2023-05-19T14:00:16;100577.59;;;20.87
24740;BMP280;45234;48.148;17.128;2023-05-19T14:02:45;100578.97;;;20.67
24740;BMP280;45234;48.148;17.128;2023-05-19T14:05:12;100570.69;;;20.49
24740;BMP280;45234;48.148;17.128;2023-05-19T14:07:39;100559.03;;;20.44
24740;BMP280;45234;48.148;17.128;2023-05-19T14:10:07;100566.88;;;20.39
24740;BMP280;45234;48.148;17.128;2023-05-19T14:12:35;100569.22;;;20.36
24740;BMP280;45234;48.148;17.128;2023-05-19T14:15:18;100568.06;;;20.27
24740;BMP280;45234;48.148;17.128;2023-05-19T14:17:45;100569.91;;;20.26
24740;BMP280;45234;48.148;17.128;2023-05-19T14:20:12;100561.41;;;20.19
24740;BMP280;45234;48.148;17.128;2023-05-19T14:22:39;100564.72;;;20.10
24740;BMP280;45234;48.148;17.128;2023-05-19T14:25:07;100563.38;;;20.07